sensor_id;sensor_type;location;lat;lon;timestamp;temperature;humidity
70294;DHT22;74367;35.280;-77.632;2023-12-29T00:00:54;10.14;88.23
70294;DHT22;74367;35.280;-77.632;2023-12-29T00:03:21;10.28;89.64
70294;DHT22;74367;35.280;-77.632;2023-12-29T00:05:48;10.18;89.84
70294;DHT22;74367;35.280;-77.632;2023-12-29T00:08:14;10.27;88.95
70294;DHT22;74367;35.280;-77.632;2023-12-29T00:10:40;10.24;89.86
70294;DHT22;74367;35.280;-77.632;2023-12-29T00:13:06;10.17;90.20
70294;DHT22;74367;35.280;-77.632;2023-12-29T00:15:32;10.08;89.41
70294;DHT22;74367;35.280;-77.632;2023-12-29T00:17:58;9.91;89.64
70294;DHT22;74367;35.280;-77.632;2023-12-29T00:20:24;9.53;90.69
70294;DHT22;74367;35.280;-77.632;2023-12-29T00:22:50;9.47;91.09
70294;DHT22;74367;35.280;-77.632;2023-12-29T00:25:16;9.57;90.17
70294;DHT22;74367;35.280;-77.632;2023-12-29T00:27:42;9.52;90.20
70294;DHT22;74367;35.280;-77.632;2023-12-29T00:30:08;9.50;90.01
70294;DHT22;74367;35.280;-77.632;2023-12-29T00:32:34;9.83;90.27
70294;DHT22;74367;35.280;-77.632;2023-12-29T00:35:01;9.90;89.25
70294;DHT22;74367;35.280;-77.632;2023-12-29T00:37:26;9.73;89.88
70294;DHT22;74367;35.280;-77.632;2023-12-29T00:39:52;9.77;88.84
70294;DHT22;74367;35.280;-77.632;2023-12-29T00:42:18;9.71;89.39
70294;DHT22;74367;35.280;-77.632;2023-12-29T00:44:44;9.84;88.79
70294;DHT22;74367;35.280;-77.632;2023-12-29T00:47:10;9.80;89.28
70294;DHT22;74367;35.280;-77.632;2023-12-29T00:49:39;9.69;89.57
70294;DHT22;74367;35.280;-77.632;2023-12-29T00:52:06;9.57;90.28
70294;DHT22;74367;35.280;-77.632;2023-12-29T00:54:32;9.32;90.60
70294;DHT22;74367;35.280;-77.632;2023-12-29T00:56:58;9.43;91.05
70294;DHT22;74367;35.280;-77.632;2023-12-29T00:59:24;9.29;91.02
70294;DHT22;74367;35.280;-77.632;2023-12-29T01:01:50;9.40;91.24
70294;DHT22;74367;35.280;-77.632;2023-12-29T01:04:16;9.35;90.51
70294;DHT22;74367;35.280;-77.632;2023-12-29T01:06:42;9.12;91.20
70294;DHT22;74367;35.280;-77.632;2023-12-29T01:09:08;8.82;92.05
70294;DHT22;74367;35.280;-77.632;2023-12-29T01:11:37;9.10;90.93
70294;DHT22;74367;35.280;-77.632;2023-12-29T01:14:03;9.15;90.62
70294;DHT22;74367;35.280;-77.632;2023-12-29T01:16:30;9.38;89.90
70294;DHT22;74367;35.280;-77.632;2023-12-29T01:18:56;9.36;90.17
70294;DHT22;74367;35.280;-77.632;2023-12-29T01:21:22;9.35;90.17
70294;DHT22;74367;35.280;-77.632;2023-12-29T01:23:47;9.28;90.27
70294;DHT22;74367;35.280;-77.632;2023-12-29T01:26:13;9.26;89.93
70294;DHT22;74367;35.280;-77.632;2023-12-29T01:28:39;9.08;90.44
70294;DHT22;74367;35.280;-77.632;2023-12-29T01:31:05;8.95;91.59
70294;DHT22;74367;35.280;-77.632;2023-12-29T01:33:31;9.16;91.94
70294;DHT22;74367;35.280;-77.632;2023-12-29T01:35:57;9.21;90.97
70294;DHT22;74367;35.280;-77.632;2023-12-29T01:38:23;9.44;90.56
70294;DHT22;74367;35.280;-77.632;2023-12-29T01:40:49;9.26;90.50
70294;DHT22;74367;35.280;-77.632;2023-12-29T01:43:15;9.00;91.32
70294;DHT22;74367;35.280;-77.632;2023-12-29T01:45:41;9.23;90.24
70294;DHT22;74367;35.280;-77.632;2023-12-29T01:48:08;9.18;89.48
70294;DHT22;74367;35.280;-77.632;2023-12-29T01:50:35;9.31;90.93
70294;DHT22;74367;35.280;-77.632;2023-12-29T01:53:03;9.12;89.61
70294;DHT22;74367;35.280;-77.632;2023-12-29T01:55:30;9.08;90.16
70294;DHT22;74367;35.280;-77.632;2023-12-29T01:57:57;9.05;90.26
70294;DHT22;74367;35.280;-77.632;2023-12-29T02:00:23;9.11;89.54
70294;DHT22;74367;35.280;-77.632;2023-12-29T02:02:49;9.02;90.59
70294;DHT22;74367;35.280;-77.632;2023-12-29T02:05:17;8.89;91.13
70294;DHT22;74367;35.280;-77.632;2023-12-29T02:07:44;9.12;90.14
70294;DHT22;74367;35.280;-77.632;2023-12-29T02:10:10;9.14;89.82
70294;DHT22;74367;35.280;-77.632;2023-12-29T02:12:39;9.18;89.56
70294;DHT22;74367;35.280;-77.632;2023-12-29T02:15:05;9.16;91.10
70294;DHT22;74367;35.280;-77.632;2023-12-29T02:17:40;9.31;90.11
70294;DHT22;74367;35.280;-77.632;2023-12-29T02:20:08;9.40;91.22
70294;DHT22;74367;35.280;-77.632;2023-12-29T02:22:35;9.23;90.58
70294;DHT22;74367;35.280;-77.632;2023-12-29T02:25:01;9.16;91.18
70294;DHT22;74367;35.280;-77.632;2023-12-29T02:30:37;9.15;90.65
70294;DHT22;74367;35.280;-77.632;2023-12-29T02:33:10;9.19;91.95
70294;DHT22;74367;35.280;-77.632;2023-12-29T02:35:41;9.04;92.01
70294;DHT22;74367;35.280;-77.632;2023-12-29T02:38:08;9.14;91.75
70294;DHT22;74367;35.280;-77.632;2023-12-29T02:40:35;9.25;91.45
70294;DHT22;74367;35.280;-77.632;2023-12-29T02:43:01;9.21;91.59
70294;DHT22;74367;35.280;-77.632;2023-12-29T02:45:27;9.19;92.44
70294;DHT22;74367;35.280;-77.632;2023-12-29T02:47:53;9.08;93.07
70294;DHT22;74367;35.280;-77.632;2023-12-29T02:50:19;9.02;92.53
70294;DHT22;74367;35.280;-77.632;2023-12-29T02:52:45;8.89;93.17
70294;DHT22;74367;35.280;-77.632;2023-12-29T02:55:11;9.00;93.08
70294;DHT22;74367;35.280;-77.632;2023-12-29T02:57:38;8.98;93.41
70294;DHT22;74367;35.280;-77.632;2023-12-29T03:00:05;9.00;92.34
70294;DHT22;74367;35.280;-77.632;2023-12-29T03:02:32;8.71;93.17
70294;DHT22;74367;35.280;-77.632;2023-12-29T03:04:58;8.91;93.11
70294;DHT22;74367;35.280;-77.632;2023-12-29T03:07:24;8.91;93.09
70294;DHT22;74367;35.280;-77.632;2023-12-29T03:09:51;8.95;92.28
70294;DHT22;74367;35.280;-77.632;2023-12-29T03:12:17;8.84;92.93
70294;DHT22;74367;35.280;-77.632;2023-12-29T03:14:44;8.73;91.84
70294;DHT22;74367;35.280;-77.632;2023-12-29T03:17:12;8.59;92.17
70294;DHT22;74367;35.280;-77.632;2023-12-29T03:19:38;8.78;91.47
70294;DHT22;74367;35.280;-77.632;2023-12-29T03:22:04;8.91;91.47
70294;DHT22;74367;35.280;-77.632;2023-12-29T03:24:30;8.82;92.81
70294;DHT22;74367;35.280;-77.632;2023-12-29T03:26:56;9.10;90.76
70294;DHT22;74367;35.280;-77.632;2023-12-29T03:29:22;9.16;90.51
70294;DHT22;74367;35.280;-77.632;2023-12-29T03:31:48;9.08;90.69
70294;DHT22;74367;35.280;-77.632;2023-12-29T03:34:14;9.15;89.84
70294;DHT22;74367;35.280;-77.632;2023-12-29T03:36:40;8.91;91.36
70294;DHT22;74367;35.280;-77.632;2023-12-29T03:39:06;9.07;90.40
70294;DHT22;74367;35.280;-77.632;2023-12-29T03:41:32;9.26;89.51
70294;DHT22;74367;35.280;-77.632;2023-12-29T03:43:58;9.21;90.33
70294;DHT22;74367;35.280;-77.632;2023-12-29T03:46:25;8.94;90.27
70294;DHT22;74367;35.280;-77.632;2023-12-29T03:48:51;8.98;91.11
70294;DHT22;74367;35.280;-77.632;2023-12-29T03:51:18;8.98;90.67
70294;DHT22;74367;35.280;-77.632;2023-12-29T03:53:45;8.87;91.38
70294;DHT22;74367;35.280;-77.632;2023-12-29T03:56:16;8.98;90.00
70294;DHT22;74367;35.280;-77.632;2023-12-29T03:58:45;9.07;89.73
70294;DHT22;74367;35.280;-77.632;2023-12-29T04:01:12;8.98;90.51
70294;DHT22;74367;35.280;-77.632;2023-12-29T04:03:39;9.11;88.97
70294;DHT22;74367;35.280;-77.632;2023-12-29T04:06:06;9.23;89.61
70294;DHT22;74367;35.280;-77.632;2023-12-29T04:08:35;8.89;90.60
70294;DHT22;74367;35.280;-77.632;2023-12-29T04:11:02;9.05;89.59
70294;DHT22;74367;35.280;-77.632;2023-12-29T04:13:29;9.07;89.76
70294;DHT22;74367;35.280;-77.632;2023-12-29T04:15:55;8.97;89.38
70294;DHT22;74367;35.280;-77.632;2023-12-29T04:18:22;9.05;89.43
70294;DHT22;74367;35.280;-77.632;2023-12-29T04:20:48;9.04;89.73
70294;DHT22;74367;35.280;-77.632;2023-12-29T04:23:15;8.89;89.62
70294;DHT22;74367;35.280;-77.632;2023-12-29T04:25:41;8.88;90.79
70294;DHT22;74367;35.280;-77.632;2023-12-29T04:28:07;8.88;90.28
70294;DHT22;74367;35.280;-77.632;2023-12-29T04:30:34;8.80;90.58
70294;DHT22;74367;35.280;-77.632;2023-12-29T04:33:00;8.88;90.12
70294;DHT22;74367;35.280;-77.632;2023-12-29T04:35:26;8.98;89.96
70294;DHT22;74367;35.280;-77.632;2023-12-29T04:37:52;8.92;89.35
70294;DHT22;74367;35.280;-77.632;2023-12-29T04:40:18;8.82;89.64
70294;DHT22;74367;35.280;-77.632;2023-12-29T04:42:44;8.88;90.28
70294;DHT22;74367;35.280;-77.632;2023-12-29T04:45:10;8.85;90.04
70294;DHT22;74367;35.280;-77.632;2023-12-29T04:47:37;8.78;90.07
70294;DHT22;74367;35.280;-77.632;2023-12-29T04:50:03;8.75;89.83
70294;DHT22;74367;35.280;-77.632;2023-12-29T04:52:29;8.78;90.45
70294;DHT22;74367;35.280;-77.632;2023-12-29T04:54:55;8.65;90.26
70294;DHT22;74367;35.280;-77.632;2023-12-29T04:57:21;8.65;90.10
70294;DHT22;74367;35.280;-77.632;2023-12-29T04:59:47;8.68;90.29
70294;DHT22;74367;35.280;-77.632;2023-12-29T05:02:13;8.80;90.63
70294;DHT22;74367;35.280;-77.632;2023-12-29T05:04:39;8.74;90.00
70294;DHT22;74367;35.280;-77.632;2023-12-29T05:07:08;8.89;89.62
70294;DHT22;74367;35.280;-77.632;2023-12-29T05:09:35;8.77;89.57
70294;DHT22;74367;35.280;-77.632;2023-12-29T05:12:02;8.74;89.91
70294;DHT22;74367;35.280;-77.632;2023-12-29T05:14:28;8.64;90.22
70294;DHT22;74367;35.280;-77.632;2023-12-29T05:16:54;8.70;90.93
70294;DHT22;74367;35.280;-77.632;2023-12-29T05:19:20;8.56;91.39
70294;DHT22;74367;35.280;-77.632;2023-12-29T05:21:46;8.65;90.14
70294;DHT22;74367;35.280;-77.632;2023-12-29T05:24:12;8.49;90.63
70294;DHT22;74367;35.280;-77.632;2023-12-29T05:26:38;8.60;90.71
70294;DHT22;74367;35.280;-77.632;2023-12-29T05:29:03;8.68;89.84
70294;DHT22;74367;35.280;-77.632;2023-12-29T05:31:29;8.56;90.16
70294;DHT22;74367;35.280;-77.632;2023-12-29T05:33:56;8.40;90.29
70294;DHT22;74367;35.280;-77.632;2023-12-29T05:36:22;8.49;90.12
70294;DHT22;74367;35.280;-77.632;2023-12-29T05:38:48;8.32;91.49
70294;DHT22;74367;35.280;-77.632;2023-12-29T05:41:14;8.39;90.57
70294;DHT22;74367;35.280;-77.632;2023-12-29T05:43:40;8.36;90.92
70294;DHT22;74367;35.280;-77.632;2023-12-29T05:46:12;8.53;89.78
70294;DHT22;74367;35.280;-77.632;2023-12-29T05:48:40;8.57;90.41
70294;DHT22;74367;35.280;-77.632;2023-12-29T05:51:10;8.57;89.93
70294;DHT22;74367;35.280;-77.632;2023-12-29T05:53:37;8.33;90.11
70294;DHT22;74367;35.280;-77.632;2023-12-29T05:56:05;8.46;89.68
70294;DHT22;74367;35.280;-77.632;2023-12-29T05:58:31;8.30;90.97
70294;DHT22;74367;35.280;-77.632;2023-12-29T06:00:57;8.30;90.62
70294;DHT22;74367;35.280;-77.632;2023-12-29T06:03:24;8.44;90.70
70294;DHT22;74367;35.280;-77.632;2023-12-29T06:05:50;8.42;90.59
70294;DHT22;74367;35.280;-77.632;2023-12-29T06:08:16;8.22;90.82
70294;DHT22;74367;35.280;-77.632;2023-12-29T06:10:42;8.14;91.43
70294;DHT22;74367;35.280;-77.632;2023-12-29T06:13:08;8.29;90.62
70294;DHT22;74367;35.280;-77.632;2023-12-29T06:15:34;8.40;90.69
70294;DHT22;74367;35.280;-77.632;2023-12-29T06:18:02;8.19;90.53
70294;DHT22;74367;35.280;-77.632;2023-12-29T06:20:28;8.21;90.85
70294;DHT22;74367;35.280;-77.632;2023-12-29T06:22:55;8.17;91.72
70294;DHT22;74367;35.280;-77.632;2023-12-29T06:25:21;8.22;91.08
70294;DHT22;74367;35.280;-77.632;2023-12-29T06:27:47;8.03;91.05
70294;DHT22;74367;35.280;-77.632;2023-12-29T06:30:14;7.86;92.23
70294;DHT22;74367;35.280;-77.632;2023-12-29T06:32:41;8.06;91.16
70294;DHT22;74367;35.280;-77.632;2023-12-29T06:35:07;8.13;91.66
70294;DHT22;74367;35.280;-77.632;2023-12-29T06:37:37;8.30;90.89
70294;DHT22;74367;35.280;-77.632;2023-12-29T06:40:04;8.34;90.13
70294;DHT22;74367;35.280;-77.632;2023-12-29T06:42:30;8.29;89.61
70294;DHT22;74367;35.280;-77.632;2023-12-29T06:44:56;8.28;90.67
70294;DHT22;74367;35.280;-77.632;2023-12-29T06:47:23;8.29;90.55
70294;DHT22;74367;35.280;-77.632;2023-12-29T06:49:49;8.25;90.49
70294;DHT22;74367;35.280;-77.632;2023-12-29T06:52:15;8.22;90.55
70294;DHT22;74367;35.280;-77.632;2023-12-29T06:54:41;8.28;90.95
70294;DHT22;74367;35.280;-77.632;2023-12-29T06:57:10;8.13;89.89
70294;DHT22;74367;35.280;-77.632;2023-12-29T06:59:40;8.10;91.44
70294;DHT22;74367;35.280;-77.632;2023-12-29T07:02:06;7.79;91.57
70294;DHT22;74367;35.280;-77.632;2023-12-29T07:04:34;7.70;93.11
70294;DHT22;74367;35.280;-77.632;2023-12-29T07:07:00;7.77;92.83
70294;DHT22;74367;35.280;-77.632;2023-12-29T07:09:27;7.93;92.11
70294;DHT22;74367;35.280;-77.632;2023-12-29T07:11:54;7.84;92.37
70294;DHT22;74367;35.280;-77.632;2023-12-29T07:14:20;7.81;92.75
70294;DHT22;74367;35.280;-77.632;2023-12-29T07:16:46;7.89;92.54
70294;DHT22;74367;35.280;-77.632;2023-12-29T07:19:12;7.84;91.96
70294;DHT22;74367;35.280;-77.632;2023-12-29T07:21:38;7.70;91.94
70294;DHT22;74367;35.280;-77.632;2023-12-29T07:24:04;7.92;91.73
70294;DHT22;74367;35.280;-77.632;2023-12-29T07:26:32;7.84;92.37
70294;DHT22;74367;35.280;-77.632;2023-12-29T07:28:59;7.91;91.91
70294;DHT22;74367;35.280;-77.632;2023-12-29T07:31:25;8.03;91.66
70294;DHT22;74367;35.280;-77.632;2023-12-29T07:33:51;7.96;91.07
70294;DHT22;74367;35.280;-77.632;2023-12-29T07:36:17;7.93;91.91
70294;DHT22;74367;35.280;-77.632;2023-12-29T07:38:43;7.89;91.53
70294;DHT22;74367;35.280;-77.632;2023-12-29T07:41:09;7.86;91.27
70294;DHT22;74367;35.280;-77.632;2023-12-29T07:43:35;7.86;91.10
70294;DHT22;74367;35.280;-77.632;2023-12-29T07:46:04;7.81;92.38
70294;DHT22;74367;35.280;-77.632;2023-12-29T07:48:30;7.78;92.64
70294;DHT22;74367;35.280;-77.632;2023-12-29T07:50:58;7.74;92.33
70294;DHT22;74367;35.280;-77.632;2023-12-29T07:53:30;7.62;92.97
70294;DHT22;74367;35.280;-77.632;2023-12-29T07:55:55;7.60;92.96
70294;DHT22;74367;35.280;-77.632;2023-12-29T07:58:21;7.50;92.31
70294;DHT22;74367;35.280;-77.632;2023-12-29T08:00:47;7.65;92.26
70294;DHT22;74367;35.280;-77.632;2023-12-29T08:03:13;7.60;92.74
70294;DHT22;74367;35.280;-77.632;2023-12-29T08:05:39;7.64;93.59
70294;DHT22;74367;35.280;-77.632;2023-12-29T08:08:05;7.53;92.35
70294;DHT22;74367;35.280;-77.632;2023-12-29T08:10:31;7.60;93.15
70294;DHT22;74367;35.280;-77.632;2023-12-29T08:12:57;7.67;93.56
70294;DHT22;74367;35.280;-77.632;2023-12-29T08:15:23;7.65;92.97
70294;DHT22;74367;35.280;-77.632;2023-12-29T08:17:49;7.65;91.82
70294;DHT22;74367;35.280;-77.632;2023-12-29T08:20:15;7.70;92.39
70294;DHT22;74367;35.280;-77.632;2023-12-29T08:22:41;7.65;91.83
70294;DHT22;74367;35.280;-77.632;2023-12-29T08:25:08;7.60;94.10
70294;DHT22;74367;35.280;-77.632;2023-12-29T08:27:34;7.34;93.39
70294;DHT22;74367;35.280;-77.632;2023-12-29T08:30:00;7.55;93.20
70294;DHT22;74367;35.280;-77.632;2023-12-29T08:32:27;7.40;92.81
70294;DHT22;74367;35.280;-77.632;2023-12-29T08:34:53;7.27;93.40
70294;DHT22;74367;35.280;-77.632;2023-12-29T08:37:19;7.35;93.94
70294;DHT22;74367;35.280;-77.632;2023-12-29T08:39:46;7.43;93.92
70294;DHT22;74367;35.280;-77.632;2023-12-29T08:42:13;7.30;94.67
70294;DHT22;74367;35.280;-77.632;2023-12-29T08:44:39;7.53;93.94
70294;DHT22;74367;35.280;-77.632;2023-12-29T08:47:05;7.41;92.76
70294;DHT22;74367;35.280;-77.632;2023-12-29T08:49:35;7.38;93.67
70294;DHT22;74367;35.280;-77.632;2023-12-29T08:52:01;7.07;93.00
70294;DHT22;74367;35.280;-77.632;2023-12-29T08:54:27;7.20;93.01
70294;DHT22;74367;35.280;-77.632;2023-12-29T08:56:53;7.17;92.57
70294;DHT22;74367;35.280;-77.632;2023-12-29T08:59:19;7.09;93.45
70294;DHT22;74367;35.280;-77.632;2023-12-29T09:01:45;7.03;93.42
70294;DHT22;74367;35.280;-77.632;2023-12-29T09:04:12;7.07;92.30
70294;DHT22;74367;35.280;-77.632;2023-12-29T09:06:38;7.07;93.22
70294;DHT22;74367;35.280;-77.632;2023-12-29T09:09:05;7.02;94.23
70294;DHT22;74367;35.280;-77.632;2023-12-29T09:11:31;7.03;94.47
70294;DHT22;74367;35.280;-77.632;2023-12-29T09:13:57;7.04;95.22
70294;DHT22;74367;35.280;-77.632;2023-12-29T09:16:23;7.09;94.82
70294;DHT22;74367;35.280;-77.632;2023-12-29T09:18:49;7.07;94.54
70294;DHT22;74367;35.280;-77.632;2023-12-29T09:21:15;7.03;94.43
70294;DHT22;74367;35.280;-77.632;2023-12-29T09:23:41;6.97;94.12
70294;DHT22;74367;35.280;-77.632;2023-12-29T09:26:07;6.85;93.37
70294;DHT22;74367;35.280;-77.632;2023-12-29T09:28:33;6.95;93.75
70294;DHT22;74367;35.280;-77.632;2023-12-29T09:31:00;7.00;94.45
70294;DHT22;74367;35.280;-77.632;2023-12-29T09:33:26;6.85;94.64
70294;DHT22;74367;35.280;-77.632;2023-12-29T09:35:52;6.91;94.27
70294;DHT22;74367;35.280;-77.632;2023-12-29T09:38:18;6.93;93.94
70294;DHT22;74367;35.280;-77.632;2023-12-29T09:40:45;6.93;93.76
70294;DHT22;74367;35.280;-77.632;2023-12-29T09:43:12;6.95;94.11
70294;DHT22;74367;35.280;-77.632;2023-12-29T09:45:41;6.92;93.75
70294;DHT22;74367;35.280;-77.632;2023-12-29T09:48:08;6.79;94.26
70294;DHT22;74367;35.280;-77.632;2023-12-29T09:50:36;6.78;93.91
70294;DHT22;74367;35.280;-77.632;2023-12-29T09:53:04;6.85;94.40
70294;DHT22;74367;35.280;-77.632;2023-12-29T09:55:30;6.89;93.48
70294;DHT22;74367;35.280;-77.632;2023-12-29T09:57:58;6.78;93.49
70294;DHT22;74367;35.280;-77.632;2023-12-29T10:00:25;6.89;93.69
70294;DHT22;74367;35.280;-77.632;2023-12-29T10:02:52;6.83;94.34
70294;DHT22;74367;35.280;-77.632;2023-12-29T10:05:18;6.68;94.41
70294;DHT22;74367;35.280;-77.632;2023-12-29T10:07:45;6.51;94.34
70294;DHT22;74367;35.280;-77.632;2023-12-29T10:10:16;6.40;94.10
70294;DHT22;74367;35.280;-77.632;2023-12-29T10:12:43;6.35;94.47
70294;DHT22;74367;35.280;-77.632;2023-12-29T10:15:47;6.30;94.40
70294;DHT22;74367;35.280;-77.632;2023-12-29T10:18:37;6.23;94.69
70294;DHT22;74367;35.280;-77.632;2023-12-29T10:21:24;6.31;94.11
70294;DHT22;74367;35.280;-77.632;2023-12-29T10:26:26;6.28;93.83
70294;DHT22;74367;35.280;-77.632;2023-12-29T10:28:52;5.99;95.52
70294;DHT22;74367;35.280;-77.632;2023-12-29T10:31:18;6.03;94.70
70294;DHT22;74367;35.280;-77.632;2023-12-29T10:33:44;5.65;95.63
70294;DHT22;74367;35.280;-77.632;2023-12-29T10:36:16;5.72;95.77
70294;DHT22;74367;35.280;-77.632;2023-12-29T10:38:42;5.85;95.47
70294;DHT22;74367;35.280;-77.632;2023-12-29T10:43:41;6.04;94.86
70294;DHT22;74367;35.280;-77.632;2023-12-29T10:46:09;6.09;94.38
70294;DHT22;74367;35.280;-77.632;2023-12-29T10:48:35;6.30;95.59
70294;DHT22;74367;35.280;-77.632;2023-12-29T10:51:02;6.28;95.40
70294;DHT22;74367;35.280;-77.632;2023-12-29T10:53:36;6.27;94.78
70294;DHT22;74367;35.280;-77.632;2023-12-29T10:56:02;6.25;94.50
70294;DHT22;74367;35.280;-77.632;2023-12-29T10:58:29;6.23;95.56
70294;DHT22;74367;35.280;-77.632;2023-12-29T11:00:56;6.24;94.99
70294;DHT22;74367;35.280;-77.632;2023-12-29T11:03:23;6.20;94.73
70294;DHT22;74367;35.280;-77.632;2023-12-29T11:05:51;6.27;95.19
70294;DHT22;74367;35.280;-77.632;2023-12-29T11:08:20;6.10;94.53
70294;DHT22;74367;35.280;-77.632;2023-12-29T11:10:50;5.94;93.67
70294;DHT22;74367;35.280;-77.632;2023-12-29T11:13:16;6.00;95.21
70294;DHT22;74367;35.280;-77.632;2023-12-29T11:15:45;5.93;95.40
70294;DHT22;74367;35.280;-77.632;2023-12-29T11:18:15;6.06;94.82
70294;DHT22;74367;35.280;-77.632;2023-12-29T11:20:43;6.13;94.84
70294;DHT22;74367;35.280;-77.632;2023-12-29T11:23:11;6.00;95.18
70294;DHT22;74367;35.280;-77.632;2023-12-29T11:25:40;6.14;94.67
70294;DHT22;74367;35.280;-77.632;2023-12-29T11:28:09;6.02;94.42
70294;DHT22;74367;35.280;-77.632;2023-12-29T11:30:36;5.96;94.63
70294;DHT22;74367;35.280;-77.632;2023-12-29T11:33:08;6.03;96.35
70294;DHT22;74367;35.280;-77.632;2023-12-29T11:35:47;6.09;96.09
70294;DHT22;74367;35.280;-77.632;2023-12-29T11:43:57;6.10;94.70
70294;DHT22;74367;35.280;-77.632;2023-12-29T11:46:41;6.04;95.62
70294;DHT22;74367;35.280;-77.632;2023-12-29T11:49:10;5.90;96.38
70294;DHT22;74367;35.280;-77.632;2023-12-29T11:51:43;6.18;96.28
70294;DHT22;74367;35.280;-77.632;2023-12-29T11:54:09;6.06;95.63
70294;DHT22;74367;35.280;-77.632;2023-12-29T11:56:37;5.96;95.55
70294;DHT22;74367;35.280;-77.632;2023-12-29T11:59:32;5.96;97.04
70294;DHT22;74367;35.280;-77.632;2023-12-29T12:02:27;5.85;95.31
70294;DHT22;74367;35.280;-77.632;2023-12-29T12:04:54;5.79;95.56
70294;DHT22;74367;35.280;-77.632;2023-12-29T12:09:49;6.00;95.90
70294;DHT22;74367;35.280;-77.632;2023-12-29T12:12:39;6.10;96.13
70294;DHT22;74367;35.280;-77.632;2023-12-29T12:17:53;6.27;95.71
70294;DHT22;74367;35.280;-77.632;2023-12-29T12:20:19;6.28;95.71
70294;DHT22;74367;35.280;-77.632;2023-12-29T12:22:49;6.25;95.82
70294;DHT22;74367;35.280;-77.632;2023-12-29T12:25:16;6.18;96.24
70294;DHT22;74367;35.280;-77.632;2023-12-29T12:27:42;6.30;96.44
70294;DHT22;74367;35.280;-77.632;2023-12-29T12:30:09;6.21;95.83
70294;DHT22;74367;35.280;-77.632;2023-12-29T12:32:35;6.18;95.68
70294;DHT22;74367;35.280;-77.632;2023-12-29T12:35:01;6.18;95.14
70294;DHT22;74367;35.280;-77.632;2023-12-29T12:37:30;6.23;96.27
70294;DHT22;74367;35.280;-77.632;2023-12-29T12:39:56;6.46;94.99
70294;DHT22;74367;35.280;-77.632;2023-12-29T12:42:22;6.49;95.68
70294;DHT22;74367;35.280;-77.632;2023-12-29T12:47:27;6.64;94.42
70294;DHT22;74367;35.280;-77.632;2023-12-29T12:49:53;6.59;95.08
70294;DHT22;74367;35.280;-77.632;2023-12-29T12:52:19;6.54;95.80
70294;DHT22;74367;35.280;-77.632;2023-12-29T12:54:46;6.62;96.22
70294;DHT22;74367;35.280;-77.632;2023-12-29T12:57:18;6.69;95.80
70294;DHT22;74367;35.280;-77.632;2023-12-29T12:59:44;6.86;95.79
70294;DHT22;74367;35.280;-77.632;2023-12-29T13:02:10;6.93;96.49
70294;DHT22;74367;35.280;-77.632;2023-12-29T13:04:40;6.89;96.04
70294;DHT22;74367;35.280;-77.632;2023-12-29T13:07:06;6.79;95.72
70294;DHT22;74367;35.280;-77.632;2023-12-29T13:09:32;6.83;96.18
70294;DHT22;74367;35.280;-77.632;2023-12-29T13:12:13;6.86;96.18
70294;DHT22;74367;35.280;-77.632;2023-12-29T13:14:42;7.02;96.61
70294;DHT22;74367;35.280;-77.632;2023-12-29T13:17:10;6.97;96.36
70294;DHT22;74367;35.280;-77.632;2023-12-29T13:19:36;7.04;96.31
70294;DHT22;74367;35.280;-77.632;2023-12-29T13:22:07;7.07;96.61
70294;DHT22;74367;35.280;-77.632;2023-12-29T13:24:33;7.28;97.03
70294;DHT22;74367;35.280;-77.632;2023-12-29T13:27:05;7.31;96.44
70294;DHT22;74367;35.280;-77.632;2023-12-29T13:29:31;7.47;96.41
70294;DHT22;74367;35.280;-77.632;2023-12-29T13:32:19;7.34;96.58
70294;DHT22;74367;35.280;-77.632;2023-12-29T13:34:48;7.54;97.36
70294;DHT22;74367;35.280;-77.632;2023-12-29T13:40:42;7.53;96.77
70294;DHT22;74367;35.280;-77.632;2023-12-29T13:43:10;7.55;95.53
70294;DHT22;74367;35.280;-77.632;2023-12-29T13:45:40;7.60;95.27
70294;DHT22;74367;35.280;-77.632;2023-12-29T13:48:07;7.55;94.97
70294;DHT22;74367;35.280;-77.632;2023-12-29T13:50:34;7.60;95.22
70294;DHT22;74367;35.280;-77.632;2023-12-29T13:53:00;7.64;95.19
70294;DHT22;74367;35.280;-77.632;2023-12-29T13:55:26;7.71;95.26
70294;DHT22;74367;35.280;-77.632;2023-12-29T13:57:53;7.68;94.80
70294;DHT22;74367;35.280;-77.632;2023-12-29T14:00:24;7.78;94.81
70294;DHT22;74367;35.280;-77.632;2023-12-29T14:05:32;7.67;94.02
70294;DHT22;74367;35.280;-77.632;2023-12-29T14:10:36;7.82;95.30
70294;DHT22;74367;35.280;-77.632;2023-12-29T14:13:29;7.85;93.58
70294;DHT22;74367;35.280;-77.632;2023-12-29T14:15:58;7.81;94.10
70294;DHT22;74367;35.280;-77.632;2023-12-29T14:20:52;8.03;94.45
70294;DHT22;74367;35.280;-77.632;2023-12-29T14:23:19;8.01;93.67
70294;DHT22;74367;35.280;-77.632;2023-12-29T14:25:47;8.12;93.86
70294;DHT22;74367;35.280;-77.632;2023-12-29T14:28:18;8.06;94.13
70294;DHT22;74367;35.280;-77.632;2023-12-29T14:30:44;8.22;93.91
70294;DHT22;74367;35.280;-77.632;2023-12-29T14:33:11;8.17;93.99
70294;DHT22;74367;35.280;-77.632;2023-12-29T14:35:36;8.13;93.53
70294;DHT22;74367;35.280;-77.632;2023-12-29T14:38:03;8.05;93.24
70294;DHT22;74367;35.280;-77.632;2023-12-29T14:40:30;8.25;93.53
70294;DHT22;74367;35.280;-77.632;2023-12-29T14:42:56;8.42;94.44
70294;DHT22;74367;35.280;-77.632;2023-12-29T14:45:23;8.37;93.44
70294;DHT22;74367;35.280;-77.632;2023-12-29T14:47:49;8.44;93.52
70294;DHT22;74367;35.280;-77.632;2023-12-29T14:50:15;8.54;93.60
70294;DHT22;74367;35.280;-77.632;2023-12-29T14:52:41;8.57;93.14
70294;DHT22;74367;35.280;-77.632;2023-12-29T14:55:08;8.60;92.37
70294;DHT22;74367;35.280;-77.632;2023-12-29T14:57:35;8.65;92.47
70294;DHT22;74367;35.280;-77.632;2023-12-29T15:00:01;8.71;92.94
70294;DHT22;74367;35.280;-77.632;2023-12-29T15:02:29;8.75;92.25
70294;DHT22;74367;35.280;-77.632;2023-12-29T15:04:55;8.97;92.80
70294;DHT22;74367;35.280;-77.632;2023-12-29T15:07:21;8.89;91.66
70294;DHT22;74367;35.280;-77.632;2023-12-29T15:09:49;9.12;91.42
70294;DHT22;74367;35.280;-77.632;2023-12-29T15:12:15;9.21;92.35
70294;DHT22;74367;35.280;-77.632;2023-12-29T15:14:41;9.12;91.21
70294;DHT22;74367;35.280;-77.632;2023-12-29T15:17:07;9.12;92.51
70294;DHT22;74367;35.280;-77.632;2023-12-29T15:19:33;9.18;92.14
70294;DHT22;74367;35.280;-77.632;2023-12-29T15:21:59;9.35;92.10
70294;DHT22;74367;35.280;-77.632;2023-12-29T15:24:25;9.47;91.20
70294;DHT22;74367;35.280;-77.632;2023-12-29T15:26:51;9.71;91.75
70294;DHT22;74367;35.280;-77.632;2023-12-29T15:29:17;9.73;91.05
70294;DHT22;74367;35.280;-77.632;2023-12-29T15:31:43;9.81;90.16
70294;DHT22;74367;35.280;-77.632;2023-12-29T15:34:10;10.01;90.67
70294;DHT22;74367;35.280;-77.632;2023-12-29T15:36:37;10.04;89.57
70294;DHT22;74367;35.280;-77.632;2023-12-29T15:39:03;10.08;89.77
70294;DHT22;74367;35.280;-77.632;2023-12-29T15:41:33;10.05;89.05
70294;DHT22;74367;35.280;-77.632;2023-12-29T15:44:00;10.21;87.55
70294;DHT22;74367;35.280;-77.632;2023-12-29T15:46:29;10.38;88.52
70294;DHT22;74367;35.280;-77.632;2023-12-29T15:48:54;10.59;88.29